Data for 04/19/2007

Time Sea-Level Adjusted Pressure Absolute Pressure Temperature Relative Humidity Dew Point   
(mb) (inHg) (mb) (inHg) (C) (F) (%) (C) (F)
00:05 1007 29.74 837 24.72 1.4 34.6 92 0.2 32.4
00:10 1007 29.74 837 24.72 1.4 34.5 92 0.3 32.5
00:15 1007 29.74 837 24.72 1.5 34.8 91 0.2 32.4
00:20 1007 29.74 837 24.72 1.5 34.7 91 0.2 32.4
00:25 1007 29.74 837 24.72 1.4 34.6 91 0.1 32.2
00:30 1007 29.74 837 24.72 1.3 34.3 92 0.2 32.3
00:35 1007 29.74 837 24.72 1.3 34.4 93 0.3 32.5
00:40 1007 29.74 837 24.72 1.3 34.4 92 0.1 32.3
00:45 1008 29.77 837 24.72 1.2 34.2 92 0.1 32.1
00:50 1008 29.77 837 24.72 1.2 34.2 92 0 32.1
00:55 1008 29.77 837 24.72 1.2 34.1 92 0 32
01:00 1008 29.77 837 24.72 1.2 34.2 92 0 32.1
01:05 1008 29.77 837 24.72 1.1 34 93 0.1 32.2
01:10 1008 29.77 837 24.72 1 33.8 94 0.1 32.2
01:15 1008 29.77 837 24.72 1.1 33.9 94 0.2 32.3
01:20 1008 29.77 837 24.72 0.9 33.7 94 0.1 32.2
01:25 1008 29.77 837 24.72 0.9 33.6 95 0.1 32.3
01:30 1008 29.77 837 24.72 0.9 33.5 95 0.2 32.3
01:35 1008 29.77 837 24.72 0.8 33.4 95 0.1 32.3
01:40 1007 29.74 837 24.72 0.7 33.3 96 0.1 32.2
01:45 1008 29.77 837 24.72 0.6 33.1 96 0.1 32.1
01:50 1008 29.77 837 24.72 0.7 33.2 96 0.2 32.3
01:55 1008 29.77 837 24.72 0.7 33.2 96 0.1 32.3
02:00 1008 29.77 837 24.72 0.7 33.3 96 0.2 32.3
02:05 1008 29.77 837 24.72 0.6 33 96 0.1 32.1
02:10 1008 29.77 837 24.72 0.6 33 97 0.1 32.2
02:15 1007 29.74 837 24.72 0.6 33.1 96 0.1 32.2
02:20 1008 29.77 837 24.72 0.6 33.2 96 0.1 32.2
02:25 1008 29.77 837 24.72 0.6 33.1 97 0.1 32.2
02:30 1008 29.77 837 24.72 0.6 33 96 0.1 32.1
02:35 1008 29.77 837 24.72 0.6 33.1 96 0.1 32.2
02:40 1008 29.77 837 24.72 0.7 33.2 97 0.2 32.3
02:45 1008 29.77 837 24.72 0.6 33.1 96 0.1 32.2
02:50 1008 29.77 837 24.72 0.6 33.1 96 0.1 32.1
02:55 1008 29.77 837 24.72 0.6 33.1 96 0 32
03:00 1008 29.77 837 24.72 0.5 32.9 96 -0 32
03:05 1008 29.77 837 24.72 0.5 32.9 96 -0 32
03:10 1008 29.77 837 24.72 0.5 33 96 0 32
03:15 1008 29.77 837 24.72 0.5 32.9 96 -0 32
03:20 1008 29.77 837 24.72 0.4 32.8 97 -0 31.9
03:25 1008 29.77 837 24.72 0.5 32.9 97 0 32
03:30 1008 29.77 837 24.72 0.5 32.8 97 -0 32
03:35 1008 29.77 837 24.72 0.5 32.8 97 0 32
03:40 1008 29.77 837 24.72 0.4 32.7 97 -0 32
03:45 1008 29.77 837 24.72 0.4 32.8 97 -0 32
03:50 1007 29.74 837 24.72 0.3 32.6 97 -0.1 31.9
03:55 1007 29.74 837 24.72 0.3 32.5 97 -0.1 31.8
04:00 1007 29.74 837 24.72 0.3 32.5 97 -0.1 31.8
04:05 1007 29.74 837 24.72 0.2 32.4 98 -0.1 31.9
04:10 1007 29.74 837 24.72 0.2 32.4 98 -0.1 31.8
04:15 1007 29.74 837 24.72 0.2 32.3 98 -0.1 31.8
04:20 1007 29.74 837 24.72 0.2 32.3 98 -0.1 31.8
04:25 1007 29.74 837 24.72 0.1 32.3 98 -0.1 31.8
04:30 1007 29.74 837 24.72 0.2 32.3 98 -0.1 31.9
04:35 1007 29.74 837 24.72 0.2 32.3 98 -0.1 31.8
04:40 1007 29.74 837 24.72 0.1 32.2 98 -0.1 31.8
04:45 1007 29.74 837 24.72 0.1 32.2 98 -0.1 31.8
04:50 1007 29.74 837 24.72 0.1 32.1 98 -0.2 31.6
04:55 1007 29.74 837 24.72 0.1 32.1 98 -0.2 31.6
05:00 1007 29.74 837 24.72 0.1 32.2 98 -0.1 31.8
05:05 1007 29.74 837 24.72 0.1 32.2 99 -0.1 31.8
05:10 1007 29.74 837 24.72 0.1 32.1 98 -0.1 31.7
05:15 1007 29.74 837 24.72 0 32.1 98 -0.2 31.7
05:20 1007 29.74 837 24.72 0.1 32.1 98 -0.1 31.7
05:25 1007 29.74 837 24.72 0.1 32.2 98 -0.1 31.8
05:30 1007 29.74 836 24.69 0.1 32.2 99 -0.1 31.9
05:35 1007 29.74 836 24.69 0.2 32.3 98 -0 31.9
05:40 1007 29.74 836 24.69 0.1 32.2 99 -0.1 31.8
05:45 1007 29.74 836 24.69 0.1 32.2 98 -0.1 31.8
05:50 1007 29.74 837 24.72 0.1 32.2 98 -0.1 31.8
05:55 1007 29.74 837 24.72 0.1 32.1 98 -0.1 31.7
06:00 1007 29.74 837 24.72 0 32.1 99 -0.2 31.7
06:05 1007 29.74 837 24.72 0 32.1 99 -0.2 31.7
06:10 1007 29.74 837 24.72 0.1 32.1 99 -0.1 31.7
06:15 1007 29.74 837 24.72 0 32 99 -0.2 31.7
06:20 1007 29.74 837 24.72 0.1 32.1 99 -0.1 31.8
06:25 1007 29.74 837 24.72 0.1 32.2 99 -0.1 31.8
06:30 1007 29.74 837 24.72 0.1 32.2 99 -0.1 31.9
06:35 1007 29.74 837 24.72 0.1 32.1 99 -0.1 31.8
06:40 1007 29.74 837 24.72 0.2 32.4 99 0 32
06:45 1007 29.74 837 24.72 0.2 32.4 99 0 32
06:50 1007 29.74 837 24.72 0.1 32.2 99 -0.1 31.9
06:55 1008 29.77 837 24.72 0.1 32.1 99 -0.1 31.8
07:00 1008 29.77 837 24.72 0.1 32.1 99 -0.1 31.7
07:05 1008 29.77 837 24.72 0 32.1 99 -0.2 31.7
07:10 1008 29.77 837 24.72 0 32 99 -0.2 31.7
07:15 1008 29.77 837 24.72 0 32 99 -0.2 31.7
07:20 1008 29.77 837 24.72 0.1 32.1 99 -0.1 31.8
07:25 1008 29.77 837 24.72 0.1 32.1 99 -0.1 31.9
07:30 1008 29.77 837 24.72 0.1 32.2 99 -0 31.9
07:35 1008 29.77 837 24.72 0.2 32.3 99 0 32
07:40 1008 29.77 837 24.72 0.2 32.4 99 0.1 32.1
07:45 1008 29.77 837 24.72 0.3 32.6 99 0.1 32.3
07:50 1008 29.77 837 24.72 0.2 32.4 99 0.1 32.1
07:55 1008 29.77 837 24.72 0.2 32.4 99 0 32.1
08:00 1008 29.77 837 24.72 0.2 32.4 99 0 32.1
08:05 1008 29.77 837 24.72 0.1 32.3 99 -0 32
08:10 1008 29.77 837 24.72 0.1 32.2 99 -0.1 31.9
08:15 1008 29.77 837 24.72 0.1 32.2 99 -0.1 31.9
08:20 1008 29.77 837 24.72 0.1 32.2 99 -0.1 31.9
08:25 1008 29.77 837 24.72 0.1 32.2 99 -0.1 31.9
08:30 1008 29.77 837 24.72 0.1 32.1 99 -0.1 31.8
08:35 1008 29.77 838 24.75 0 32 99 -0.1 31.8
08:40 1009 29.8 838 24.75 0.1 32.2 99 -0 31.9
08:45 1009 29.8 838 24.75 0.1 32.2 99 -0 31.9
08:50 1009 29.8 838 24.75 0.1 32.3 99 0 32
08:55 1009 29.8 838 24.75 0.2 32.3 99 0 32.1
09:00 1009 29.8 838 24.75 0.2 32.3 99 -0 32
09:05 1009 29.8 838 24.75 0.2 32.3 99 -0 32
09:10 1009 29.8 838 24.75 0.2 32.3 99 -0 32
09:15 1009 29.8 838 24.75 0.2 32.3 99 0 32
09:20 1009 29.8 838 24.75 0.2 32.4 99 0 32
09:25 1009 29.8 838 24.75 0.2 32.4 99 0.1 32.1
09:30 1009 29.8 838 24.75 0.2 32.4 99 0.1 32.1
09:35 1009 29.8 838 24.75 0.2 32.4 99 0 32.1
09:40 1009 29.8 838 24.75 0.2 32.3 98 -0.1 31.9
09:45 1009 29.8 838 24.75 0.2 32.3 99 -0 31.9
09:50 1009 29.8 838 24.75 0.2 32.3 98 -0.1 31.9
09:55 1009 29.8 838 24.75 0.1 32.3 98 -0.1 31.8
10:00 1009 29.8 838 24.75 0.1 32.2 98 -0.1 31.8
10:05 1009 29.8 838 24.75 0.1 32.2 98 -0.1 31.8
10:10 1009 29.8 838 24.75 0.1 32.2 98 -0.1 31.8
10:15 1009 29.8 838 24.75 0.1 32.2 98 -0.1 31.8
10:20 1009 29.8 838 24.75 0.2 32.3 98 -0.1 31.8
10:25 1009 29.8 838 24.75 0.2 32.3 98 -0.1 31.9
10:30 1009 29.8 838 24.75 0.2 32.4 98 -0.1 31.8
10:35 1009 29.8 839 24.78 0.2 32.4 98 -0.1 31.9
10:40 1009 29.8 839 24.78 0.2 32.4 98 -0.1 31.8
10:45 1009 29.8 839 24.78 0.3 32.6 98 0 32
10:50 1009 29.8 839 24.78 0.3 32.6 97 -0 31.9
10:55 1009 29.8 839 24.78 0.4 32.7 97 -0 31.9
11:00 1009 29.8 839 24.78 0.4 32.8 97 0 32
11:05 1009 29.8 839 24.78 0.5 32.9 97 -0 32
11:10 1009 29.8 839 24.78 0.5 33 96 0 32
11:15 1009 29.8 839 24.78 0.6 33 96 0 32
11:20 1009 29.8 839 24.78 0.5 32.9 97 0 32
11:25 1010 29.83 839 24.78 0.6 33.1 96 0.1 32.1
11:30 1010 29.83 839 24.78 0.6 33.1 96 0.1 32.1
11:35 1010 29.83 839 24.78 0.6 33.1 96 0.1 32.2
11:40 1010 29.83 839 24.78 0.6 33.2 96 0.1 32.1
11:45 1010 29.83 839 24.78 0.8 33.4 96 0.2 32.4
11:50 1010 29.83 839 24.78 0.9 33.5 95 0.2 32.3
11:55 1010 29.83 839 24.78 0.7 33.3 96 0.1 32.3
12:00 1010 29.83 839 24.78 0.8 33.4 95 0.1 32.1
12:05 1010 29.83 839 24.78 0.8 33.4 95 0 32
12:10 1010 29.83 839 24.78 0.9 33.6 95 0.1 32.2
12:15 1010 29.83 839 24.78 1 33.7 94 0 32
12:20 1010 29.83 839 24.78 0.9 33.7 92 -0.2 31.7
12:25 1010 29.83 839 24.78 1 33.9 90 -0.5 31.1
12:30 1010 29.83 839 24.78 1 33.8 91 -0.3 31.4
12:35 1010 29.83 839 24.78 0.9 33.7 91 -0.4 31.2
12:40 1010 29.83 839 24.78 1 33.9 91 -0.3 31.4
12:45 1010 29.83 839 24.78 1 33.8 89 -0.6 30.9
12:50 1010 29.83 839 24.78 1.1 34.1 88 -0.7 30.8
12:55 1010 29.83 839 24.78 1.2 34.2 87 -0.7 30.8
13:00 1010 29.83 839 24.78 1.3 34.4 87 -0.6 30.9
13:05 1010 29.83 839 24.78 1.5 34.8 86 -0.6 31
13:10 1010 29.83 839 24.78 1.7 35 85 -0.6 30.8
13:15 1010 29.83 839 24.78 1.8 35.2 85 -0.5 31
13:20 1010 29.83 839 24.78 2.4 36.3 81 -0.5 31.2
13:25 1010 29.83 839 24.78 3.2 37.7 76 -0.6 30.9
13:30 1010 29.83 839 24.78 3.5 38.2 72 -1.2 29.9
13:35 1010 29.83 839 24.78 3.3 38 71 -1.4 29.5
13:40 1009 29.8 839 24.78 3.4 38.1 69 -1.8 28.8
13:45 1010 29.83 839 24.78 3.5 38.4 66 -2.2 28
13:50 1009 29.8 839 24.78 3.7 38.7 67 -1.8 28.7
13:55 1009 29.8 839 24.78 4.1 39.4 66 -1.6 29.1
14:00 1009 29.8 839 24.78 4.3 39.8 61 -2.6 27.3
14:05 1009 29.8 839 24.78 4.4 40 61 -2.4 27.6
14:10 1009 29.8 839 24.78 4.4 40 60 -2.7 27.1
14:15 1009 29.8 839 24.78 4.4 39.9 60 -2.8 27
14:20 1010 29.83 839 24.78 4.6 40.3 56 -3.3 26
14:25 1010 29.83 839 24.78 4.8 40.6 59 -2.4 27.6
14:30 1010 29.83 839 24.78 5.2 41.3 55 -3 26.5
14:35 1010 29.83 839 24.78 4.7 40.5 57 -3 26.5
14:40 1010 29.83 839 24.78 4.9 40.8 56 -3.1 26.4
14:45 1010 29.83 839 24.78 5 41.1 57 -2.8 27
14:50 1010 29.83 839 24.78 4.7 40.5 63 -1.6 29.1
14:55 1010 29.83 839 24.78 4.3 39.8 66 -1.5 29.4
15:00 1010 29.83 839 24.78 4.1 39.3 65 -1.9 28.5
15:05 1010 29.83 839 24.78 3.7 38.7 67 -1.8 28.7
15:10 1010 29.83 839 24.78 3.7 38.6 67 -2 28.4
15:15 1010 29.83 839 24.78 3.8 38.8 66 -1.9 28.5
15:20 1010 29.83 839 24.78 4.1 39.4 64 -2.1 28.1
15:25 1010 29.83 839 24.78 4 39.1 64 -2.2 28
15:30 1010 29.83 839 24.78 3.7 38.7 66 -2.1 28.2
15:35 1010 29.83 839 24.78 3.4 38.1 67 -2.3 27.9
15:40 1010 29.83 839 24.78 3.3 38 68 -2.1 28.3
15:45 1010 29.83 839 24.78 3.4 38.2 67 -2.1 28.2
15:50 1010 29.83 839 24.78 3.5 38.3 69 -1.7 28.9
15:55 1010 29.83 839 24.78 3.4 38.2 69 -1.6 29.1
16:00 1010 29.83 839 24.78 3.6 38.4 68 -1.7 28.9
16:05 1010 29.83 839 24.78 3.7 38.7 68 -1.7 29
16:10 1010 29.83 839 24.78 3.8 38.8 66 -2 28.4
16:15 1010 29.83 839 24.78 3.7 38.7 65 -2.2 28.1
16:20 1010 29.83 839 24.78 3.6 38.5 65 -2.4 27.7
16:25 1010 29.83 839 24.78 3.4 38.1 69 -1.8 28.8
16:30 1010 29.83 839 24.78 3.3 37.9 69 -1.9 28.6
16:35 1010 29.83 839 24.78 3.5 38.2 68 -1.8 28.7
16:40 1010 29.83 839 24.78 3.5 38.4 68 -1.7 28.9
16:45 1010 29.83 839 24.78 3.5 38.3 69 -1.6 29.1
16:50 1010 29.83 839 24.78 3.7 38.7 69 -1.4 29.4
16:55 1010 29.83 839 24.78 4 39.1 70 -1.1 30
17:00 1010 29.83 839 24.78 4.5 40 64 -1.8 28.7
17:05 1010 29.83 839 24.78 4.7 40.4 63 -1.7 29
17:10 1010 29.83 839 24.78 4.4 40 66 -1.3 29.6
17:15 1010 29.83 839 24.78 3.6 38.6 71 -1.2 29.8
17:20 1010 29.83 839 24.78 3.2 37.7 67 -2.3 27.9
17:25 1010 29.83 839 24.78 2.7 36.9 68 -2.5 27.5
17:30 1010 29.83 839 24.78 2.8 37.1 68 -2.5 27.6
17:35 1010 29.83 839 24.78 3 37.4 69 -2.2 28.1
17:40 1010 29.83 839 24.78 3.1 37.7 64 -3.1 26.4
17:45 1010 29.83 840 24.81 3.2 37.8 58 -4.2 24.4
17:50 1010 29.83 839 24.78 3.6 38.5 56 -4.3 24.3
17:55 1010 29.83 839 24.78 4.3 39.7 57 -3.4 25.8
18:00 1010 29.83 839 24.78 4.8 40.6 58 -2.9 26.8
18:05 1010 29.83 839 24.78 5 40.9 58 -2.6 27.4
18:10 1010 29.83 839 24.78 4.6 40.3 60 -2.6 27.3
18:15 1010 29.83 840 24.81 4.4 39.9 62 -2.2 28.1
18:20 1010 29.83 839 24.78 4.7 40.4 62 -1.9 28.5
18:25 1010 29.83 839 24.78 4.6 40.3 63 -1.9 28.6
18:30 1010 29.83 839 24.78 4.7 40.5 61 -2.1 28.3
18:35 1010 29.83 839 24.78 4.8 40.6 59 -2.5 27.5
18:40 1010 29.83 839 24.78 4.7 40.4 62 -2 28.5
18:45 1010 29.83 839 24.78 4.7 40.5 63 -1.7 29
18:50 1010 29.83 839 24.78 4.6 40.2 64 -1.7 28.9
18:55 1010 29.83 839 24.78 4.4 40 63 -1.9 28.6
19:00 1010 29.83 840 24.81 4.2 39.5 65 -1.7 28.9
19:05 1010 29.83 840 24.81 3.8 38.9 69 -1.2 29.8
19:10 1010 29.83 840 24.81 3.5 38.3 73 -0.8 30.5
19:15 1010 29.83 840 24.81 2.7 36.8 77 -1 30.3
19:20 1011 29.85 840 24.81 1.8 35.2 84 -0.6 30.9
19:25 1011 29.85 840 24.81 1.5 34.7 77 -2.1 28.2
19:30 1011 29.85 840 24.81 1.5 34.7 85 -0.7 30.7
19:35 1011 29.85 840 24.81 1.4 34.5 81 -1.5 29.3
19:40 1011 29.85 840 24.81 1.4 34.5 85 -1 30.3
19:45 1011 29.85 840 24.81 1.4 34.6 85 -0.9 30.4
19:50 1011 29.85 840 24.81 1.5 34.7 81 -1.4 29.5
19:55 1011 29.85 840 24.81 1.8 35.2 78 -1.6 29.1
20:00 1011 29.85 840 24.81 2.1 35.8 75 -1.8 28.8
20:05 1011 29.85 840 24.81 2.3 36.2 78 -1.1 30
20:10 1011 29.85 840 24.81 2.2 36 79 -1 30.2
20:15 1011 29.85 840 24.81 2.2 35.9 81 -0.7 30.7
20:20 1011 29.85 840 24.81 1.8 35.3 84 -0.6 31
20:25 1011 29.85 840 24.81 1.3 34.4 87 -0.6 30.9
20:30 1011 29.85 840 24.81 1.1 33.9 87 -0.8 30.6
20:35 1011 29.85 840 24.81 1 33.8 87 -0.8 30.5
20:40 1011 29.85 840 24.81 1 33.8 86 -1 30.1
20:45 1011 29.85 840 24.81 1 33.9 84 -1.3 29.6
20:50 1011 29.85 840 24.81 1.2 34.1 83 -1.3 29.6
20:55 1011 29.85 840 24.81 1.3 34.3 80 -1.7 28.9
21:00 1011 29.85 840 24.81 1.5 34.6 78 -2.1 28.3
21:05 1011 29.85 840 24.81 1.5 34.8 78 -1.9 28.5
21:10 1011 29.85 840 24.81 1.5 34.6 78 -2 28.4
21:15 1011 29.85 840 24.81 1.5 34.7 76 -2.2 28
21:20 1011 29.85 840 24.81 1.7 35 76 -2.2 28
21:25 1011 29.85 840 24.81 1.8 35.2 73 -2.5 27.5
21:30 1011 29.85 840 24.81 1.8 35.2 75 -2.2 28
21:35 1011 29.85 840 24.81 1.9 35.5 72 -2.5 27.4
21:40 1011 29.85 840 24.81 2 35.6 72 -2.5 27.5
21:45 1011 29.85 840 24.81 2 35.6 71 -2.8 26.9
21:50 1011 29.85 840 24.81 2 35.7 71 -2.7 27.1
21:55 1011 29.85 841 24.83 2 35.7 70 -2.9 26.8
22:00 1011 29.85 841 24.83 2.1 35.7 70 -2.8 27
22:05 1011 29.85 841 24.83 2 35.6 69 -3.1 26.5
22:10 1011 29.85 841 24.83 2.1 35.7 69 -3.1 26.5
22:15 1011 29.85 841 24.83 2.1 35.7 69 -3 26.5
22:20 1011 29.85 841 24.83 2 35.6 68 -3.2 26.3
22:25 1011 29.85 841 24.83 2 35.5 68 -3.3 26.1
22:30 1011 29.85 841 24.83 1.9 35.4 68 -3.5 25.7
22:35 1012 29.88 841 24.83 1.8 35.3 68 -3.5 25.7
22:40 1012 29.88 841 24.83 1.8 35.2 67 -3.7 25.4
22:45 1012 29.88 841 24.83 1.8 35.2 68 -3.5 25.7
22:50 1012 29.88 841 24.83 1.8 35.2 68 -3.6 25.6
22:55 1012 29.88 841 24.83 1.8 35.3 68 -3.4 25.8
23:00 1012 29.88 841 24.83 1.7 35.1 68 -3.5 25.7
23:05 1012 29.88 841 24.83 1.7 35.1 68 -3.5 25.6
23:10 1012 29.88 841 24.83 1.8 35.3 67 -3.7 25.3
23:15 1012 29.88 841 24.83 1.8 35.2 68 -3.6 25.5
23:20 1012 29.88 841 24.83 1.7 35 68 -3.5 25.7
23:25 1011 29.85 841 24.83 1.6 34.9 69 -3.4 26
23:30 1011 29.85 841 24.83 1.6 34.9 69 -3.4 25.8
23:35 1012 29.88 841 24.83 1.6 34.8 69 -3.5 25.7
23:40 1012 29.88 841 24.83 1.5 34.8 70 -3.4 25.9
23:45 1012 29.88 841 24.83 1.5 34.7 70 -3.4 25.9
23:50 1012 29.88 841 24.83 1.4 34.6 71 -3.4 26
23:55 1012 29.88 841 24.83 1.3 34.4 70 -3.6 25.6
24:00 1012 29.88 841 24.83 1.2 34.2 72 -3.3 26